sensor_id;sensor_type;location;lat;lon;timestamp;temperature;humidity
13686;DHT22;6915;48.296;8.874;2023-01-13T00:02:14;8.80;99.90
13686;DHT22;6915;48.296;8.874;2023-01-13T00:04:44;8.70;99.90
13686;DHT22;6915;48.296;8.874;2023-01-13T00:07:14;8.80;99.90
13686;DHT22;6915;48.296;8.874;2023-01-13T00:09:43;8.80;99.90
13686;DHT22;6915;48.296;8.874;2023-01-13T00:12:12;8.80;99.90
13686;DHT22;6915;48.296;8.874;2023-01-13T00:14:41;8.70;99.90
13686;DHT22;6915;48.296;8.874;2023-01-13T00:17:10;8.70;99.90
13686;DHT22;6915;48.296;8.874;2023-01-13T00:19:40;8.70;99.90
13686;DHT22;6915;48.296;8.874;2023-01-13T00:22:09;8.60;99.90
13686;DHT22;6915;48.296;8.874;2023-01-13T00:24:38;8.60;99.90
13686;DHT22;6915;48.296;8.874;2023-01-13T00:27:07;8.70;99.90
13686;DHT22;6915;48.296;8.874;2023-01-13T00:29:36;8.60;99.90
13686;DHT22;6915;48.296;8.874;2023-01-13T00:32:05;8.60;99.90
13686;DHT22;6915;48.296;8.874;2023-01-13T00:34:36;8.70;99.90
13686;DHT22;6915;48.296;8.874;2023-01-13T00:37:07;8.70;99.90
13686;DHT22;6915;48.296;8.874;2023-01-13T00:39:39;8.70;99.90
13686;DHT22;6915;48.296;8.874;2023-01-13T00:42:09;8.70;99.90
13686;DHT22;6915;48.296;8.874;2023-01-13T00:44:57;8.70;99.90
13686;DHT22;6915;48.296;8.874;2023-01-13T00:47:26;8.60;99.90
13686;DHT22;6915;48.296;8.874;2023-01-13T00:49:56;8.70;99.90
13686;DHT22;6915;48.296;8.874;2023-01-13T00:52:27;8.80;99.90
13686;DHT22;6915;48.296;8.874;2023-01-13T00:54:55;8.80;99.90
13686;DHT22;6915;48.296;8.874;2023-01-13T00:57:24;8.80;99.90
13686;DHT22;6915;48.296;8.874;2023-01-13T00:59:54;8.80;99.90
13686;DHT22;6915;48.296;8.874;2023-01-13T01:02:23;8.80;99.90
13686;DHT22;6915;48.296;8.874;2023-01-13T01:04:52;8.80;99.90
13686;DHT22;6915;48.296;8.874;2023-01-13T01:07:21;8.80;99.90
13686;DHT22;6915;48.296;8.874;2023-01-13T01:09:51;8.80;99.90
13686;DHT22;6915;48.296;8.874;2023-01-13T01:12:20;8.80;99.90
13686;DHT22;6915;48.296;8.874;2023-01-13T01:14:49;8.80;99.90
13686;DHT22;6915;48.296;8.874;2023-01-13T01:17:18;8.70;99.90
13686;DHT22;6915;48.296;8.874;2023-01-13T01:19:48;8.70;99.90
13686;DHT22;6915;48.296;8.874;2023-01-13T01:22:16;8.70;99.90
13686;DHT22;6915;48.296;8.874;2023-01-13T01:24:45;8.70;99.90
13686;DHT22;6915;48.296;8.874;2023-01-13T01:27:16;8.60;99.90
13686;DHT22;6915;48.296;8.874;2023-01-13T01:29:45;8.60;99.90
13686;DHT22;6915;48.296;8.874;2023-01-13T01:32:14;8.60;99.90
13686;DHT22;6915;48.296;8.874;2023-01-13T01:34:43;8.60;99.90
13686;DHT22;6915;48.296;8.874;2023-01-13T01:37:12;8.60;99.90
13686;DHT22;6915;48.296;8.874;2023-01-13T01:39:41;8.60;99.90
13686;DHT22;6915;48.296;8.874;2023-01-13T01:42:15;8.60;99.90
13686;DHT22;6915;48.296;8.874;2023-01-13T01:45:08;8.60;99.90
13686;DHT22;6915;48.296;8.874;2023-01-13T01:47:40;8.60;99.90
13686;DHT22;6915;48.296;8.874;2023-01-13T01:50:10;8.80;99.90
13686;DHT22;6915;48.296;8.874;2023-01-13T01:52:43;8.60;99.90
13686;DHT22;6915;48.296;8.874;2023-01-13T01:55:16;8.60;99.90
13686;DHT22;6915;48.296;8.874;2023-01-13T01:57:49;8.70;99.90
13686;DHT22;6915;48.296;8.874;2023-01-13T02:00:19;8.70;99.90
13686;DHT22;6915;48.296;8.874;2023-01-13T02:02:50;8.70;99.90
13686;DHT22;6915;48.296;8.874;2023-01-13T02:05:20;8.70;99.90
13686;DHT22;6915;48.296;8.874;2023-01-13T02:07:51;8.70;99.90
13686;DHT22;6915;48.296;8.874;2023-01-13T02:10:22;8.80;99.90
13686;DHT22;6915;48.296;8.874;2023-01-13T02:12:54;8.70;99.90
13686;DHT22;6915;48.296;8.874;2023-01-13T02:15:31;8.70;99.90
13686;DHT22;6915;48.296;8.874;2023-01-13T02:18:22;8.70;99.90
13686;DHT22;6915;48.296;8.874;2023-01-13T02:24:38;8.70;99.90
13686;DHT22;6915;48.296;8.874;2023-01-13T02:27:48;8.70;99.90
13686;DHT22;6915;48.296;8.874;2023-01-13T02:30:29;8.70;99.90
13686;DHT22;6915;48.296;8.874;2023-01-13T02:36:12;8.70;99.90
13686;DHT22;6915;48.296;8.874;2023-01-13T02:38:48;8.70;99.90
13686;DHT22;6915;48.296;8.874;2023-01-13T02:41:23;8.70;99.90
13686;DHT22;6915;48.296;8.874;2023-01-13T02:44:14;8.80;99.90
13686;DHT22;6915;48.296;8.874;2023-01-13T02:46:55;8.70;99.90
13686;DHT22;6915;48.296;8.874;2023-01-13T02:49:29;8.70;99.90
13686;DHT22;6915;48.296;8.874;2023-01-13T02:52:02;8.60;99.90
13686;DHT22;6915;48.296;8.874;2023-01-13T02:54:34;8.60;99.90
13686;DHT22;6915;48.296;8.874;2023-01-13T02:57:04;8.50;99.90
13686;DHT22;6915;48.296;8.874;2023-01-13T02:59:36;8.40;99.90
13686;DHT22;6915;48.296;8.874;2023-01-13T03:02:11;8.40;99.90
13686;DHT22;6915;48.296;8.874;2023-01-13T03:04:48;8.20;99.90
13686;DHT22;6915;48.296;8.874;2023-01-13T03:07:38;8.30;99.90
13686;DHT22;6915;48.296;8.874;2023-01-13T03:10:14;8.30;99.90
13686;DHT22;6915;48.296;8.874;2023-01-13T03:12:53;8.30;99.90
13686;DHT22;6915;48.296;8.874;2023-01-13T03:15:33;8.30;99.90
13686;DHT22;6915;48.296;8.874;2023-01-13T03:18:14;8.30;99.90
13686;DHT22;6915;48.296;8.874;2023-01-13T03:20:46;8.20;99.90
13686;DHT22;6915;48.296;8.874;2023-01-13T03:23:20;8.30;99.90
13686;DHT22;6915;48.296;8.874;2023-01-13T03:25:55;8.30;99.90
13686;DHT22;6915;48.296;8.874;2023-01-13T03:28:30;8.40;99.90
13686;DHT22;6915;48.296;8.874;2023-01-13T03:31:05;8.40;99.90
13686;DHT22;6915;48.296;8.874;2023-01-13T03:33:43;8.40;99.90
13686;DHT22;6915;48.296;8.874;2023-01-13T03:36:15;8.40;99.90
13686;DHT22;6915;48.296;8.874;2023-01-13T03:38:46;8.40;99.90
13686;DHT22;6915;48.296;8.874;2023-01-13T03:41:19;8.40;99.90
13686;DHT22;6915;48.296;8.874;2023-01-13T03:43:52;8.30;99.90
13686;DHT22;6915;48.296;8.874;2023-01-13T03:46:48;8.40;99.90
13686;DHT22;6915;48.296;8.874;2023-01-13T03:49:21;8.30;99.90
13686;DHT22;6915;48.296;8.874;2023-01-13T03:51:55;8.30;99.90
13686;DHT22;6915;48.296;8.874;2023-01-13T03:54:27;8.40;99.90
13686;DHT22;6915;48.296;8.874;2023-01-13T03:57:01;8.30;99.90
13686;DHT22;6915;48.296;8.874;2023-01-13T03:59:34;8.30;99.90
13686;DHT22;6915;48.296;8.874;2023-01-13T04:02:08;8.30;99.90
13686;DHT22;6915;48.296;8.874;2023-01-13T04:04:42;8.10;99.90
13686;DHT22;6915;48.296;8.874;2023-01-13T04:07:14;8.20;99.90
13686;DHT22;6915;48.296;8.874;2023-01-13T04:09:51;8.10;99.90
13686;DHT22;6915;48.296;8.874;2023-01-13T04:12:25;8.20;99.90
13686;DHT22;6915;48.296;8.874;2023-01-13T04:15:15;8.20;99.90
13686;DHT22;6915;48.296;8.874;2023-01-13T04:17:45;8.20;99.90
13686;DHT22;6915;48.296;8.874;2023-01-13T04:20:15;8.30;99.90
13686;DHT22;6915;48.296;8.874;2023-01-13T04:22:43;8.20;99.90
13686;DHT22;6915;48.296;8.874;2023-01-13T04:25:12;8.20;99.90
13686;DHT22;6915;48.296;8.874;2023-01-13T04:27:41;8.20;99.90
13686;DHT22;6915;48.296;8.874;2023-01-13T04:30:11;8.20;99.90
13686;DHT22;6915;48.296;8.874;2023-01-13T04:32:40;8.10;99.90
13686;DHT22;6915;48.296;8.874;2023-01-13T04:35:09;8.10;99.90
13686;DHT22;6915;48.296;8.874;2023-01-13T04:37:39;8.20;99.90
13686;DHT22;6915;48.296;8.874;2023-01-13T04:40:10;8.10;99.90
13686;DHT22;6915;48.296;8.874;2023-01-13T04:42:39;8.20;99.90
13686;DHT22;6915;48.296;8.874;2023-01-13T04:45:07;8.10;99.90
13686;DHT22;6915;48.296;8.874;2023-01-13T04:47:36;8.10;99.90
13686;DHT22;6915;48.296;8.874;2023-01-13T04:50:06;8.00;99.90
13686;DHT22;6915;48.296;8.874;2023-01-13T04:52:36;8.00;99.90
13686;DHT22;6915;48.296;8.874;2023-01-13T04:55:07;8.10;99.90
13686;DHT22;6915;48.296;8.874;2023-01-13T04:57:36;8.10;99.90
13686;DHT22;6915;48.296;8.874;2023-01-13T05:00:08;8.10;99.90
13686;DHT22;6915;48.296;8.874;2023-01-13T05:02:38;8.10;99.90
13686;DHT22;6915;48.296;8.874;2023-01-13T05:05:07;8.10;99.90
13686;DHT22;6915;48.296;8.874;2023-01-13T05:07:37;8.00;99.90
13686;DHT22;6915;48.296;8.874;2023-01-13T05:10:09;8.10;99.90
13686;DHT22;6915;48.296;8.874;2023-01-13T05:12:39;8.00;99.90
13686;DHT22;6915;48.296;8.874;2023-01-13T05:15:25;8.00;99.90
13686;DHT22;6915;48.296;8.874;2023-01-13T05:18:12;8.00;99.90
13686;DHT22;6915;48.296;8.874;2023-01-13T05:20:41;8.00;99.90
13686;DHT22;6915;48.296;8.874;2023-01-13T05:23:09;7.90;99.90
13686;DHT22;6915;48.296;8.874;2023-01-13T05:25:57;8.00;99.90
13686;DHT22;6915;48.296;8.874;2023-01-13T05:28:26;8.00;99.90
13686;DHT22;6915;48.296;8.874;2023-01-13T05:30:58;8.00;99.90
13686;DHT22;6915;48.296;8.874;2023-01-13T05:33:27;8.00;99.90
13686;DHT22;6915;48.296;8.874;2023-01-13T05:36:00;7.90;99.90
13686;DHT22;6915;48.296;8.874;2023-01-13T05:38:29;7.90;99.90
13686;DHT22;6915;48.296;8.874;2023-01-13T05:41:01;7.90;99.90
13686;DHT22;6915;48.296;8.874;2023-01-13T05:43:48;7.80;99.90
13686;DHT22;6915;48.296;8.874;2023-01-13T05:46:17;8.00;99.90
13686;DHT22;6915;48.296;8.874;2023-01-13T05:48:46;8.00;99.90
13686;DHT22;6915;48.296;8.874;2023-01-13T05:51:15;7.90;99.90
13686;DHT22;6915;48.296;8.874;2023-01-13T05:53:45;7.90;99.90
13686;DHT22;6915;48.296;8.874;2023-01-13T05:56:16;8.00;99.90
13686;DHT22;6915;48.296;8.874;2023-01-13T05:58:45;8.00;99.90
13686;DHT22;6915;48.296;8.874;2023-01-13T06:01:15;8.00;99.90
13686;DHT22;6915;48.296;8.874;2023-01-13T06:03:45;8.00;99.90
13686;DHT22;6915;48.296;8.874;2023-01-13T06:06:15;7.90;99.90
13686;DHT22;6915;48.296;8.874;2023-01-13T06:08:44;7.80;99.90
13686;DHT22;6915;48.296;8.874;2023-01-13T06:11:16;7.90;99.90
13686;DHT22;6915;48.296;8.874;2023-01-13T06:13:45;7.90;99.90
13686;DHT22;6915;48.296;8.874;2023-01-13T06:16:15;8.00;99.90
13686;DHT22;6915;48.296;8.874;2023-01-13T06:18:44;8.00;99.90
13686;DHT22;6915;48.296;8.874;2023-01-13T06:21:13;8.00;99.90
13686;DHT22;6915;48.296;8.874;2023-01-13T06:23:42;8.00;99.90
13686;DHT22;6915;48.296;8.874;2023-01-13T06:26:16;8.00;99.90
13686;DHT22;6915;48.296;8.874;2023-01-13T06:28:48;8.00;99.90
13686;DHT22;6915;48.296;8.874;2023-01-13T06:31:18;8.00;99.90
13686;DHT22;6915;48.296;8.874;2023-01-13T06:33:51;8.00;99.90
13686;DHT22;6915;48.296;8.874;2023-01-13T06:36:25;8.00;99.90
13686;DHT22;6915;48.296;8.874;2023-01-13T06:39:00;8.00;99.90
13686;DHT22;6915;48.296;8.874;2023-01-13T06:41:31;8.00;99.90
13686;DHT22;6915;48.296;8.874;2023-01-13T06:44:19;8.10;99.90
13686;DHT22;6915;48.296;8.874;2023-01-13T06:46:48;8.10;99.90
13686;DHT22;6915;48.296;8.874;2023-01-13T06:49:18;8.10;99.90
13686;DHT22;6915;48.296;8.874;2023-01-13T06:51:47;8.00;99.90
13686;DHT22;6915;48.296;8.874;2023-01-13T06:54:17;8.10;99.90
13686;DHT22;6915;48.296;8.874;2023-01-13T06:56:48;8.00;99.90
13686;DHT22;6915;48.296;8.874;2023-01-13T06:59:17;8.00;99.90
13686;DHT22;6915;48.296;8.874;2023-01-13T07:01:47;8.10;99.90
13686;DHT22;6915;48.296;8.874;2023-01-13T07:04:18;8.10;99.90
13686;DHT22;6915;48.296;8.874;2023-01-13T07:06:47;8.10;99.90
13686;DHT22;6915;48.296;8.874;2023-01-13T07:09:16;8.10;99.90
13686;DHT22;6915;48.296;8.874;2023-01-13T07:11:48;8.10;99.90
13686;DHT22;6915;48.296;8.874;2023-01-13T07:14:19;8.10;99.90
13686;DHT22;6915;48.296;8.874;2023-01-13T07:17:06;8.10;99.90
13686;DHT22;6915;48.296;8.874;2023-01-13T07:19:36;8.10;99.90
13686;DHT22;6915;48.296;8.874;2023-01-13T07:22:06;8.10;99.90
13686;DHT22;6915;48.296;8.874;2023-01-13T07:24:36;8.20;99.90
13686;DHT22;6915;48.296;8.874;2023-01-13T07:27:06;8.20;99.90
13686;DHT22;6915;48.296;8.874;2023-01-13T07:29:36;8.20;99.90
13686;DHT22;6915;48.296;8.874;2023-01-13T07:32:06;8.20;99.90
13686;DHT22;6915;48.296;8.874;2023-01-13T07:34:36;8.20;99.90
13686;DHT22;6915;48.296;8.874;2023-01-13T07:37:06;8.20;99.90
13686;DHT22;6915;48.296;8.874;2023-01-13T07:39:36;8.20;99.90
13686;DHT22;6915;48.296;8.874;2023-01-13T07:42:07;8.20;99.90
13686;DHT22;6915;48.296;8.874;2023-01-13T07:44:53;8.20;99.90
13686;DHT22;6915;48.296;8.874;2023-01-13T07:47:23;8.20;99.90
13686;DHT22;6915;48.296;8.874;2023-01-13T07:49:52;8.30;99.90
13686;DHT22;6915;48.296;8.874;2023-01-13T07:52:21;8.30;99.90
13686;DHT22;6915;48.296;8.874;2023-01-13T07:54:50;8.30;99.90
13686;DHT22;6915;48.296;8.874;2023-01-13T07:57:21;8.20;99.90
13686;DHT22;6915;48.296;8.874;2023-01-13T07:59:50;8.20;99.90
13686;DHT22;6915;48.296;8.874;2023-01-13T08:02:19;8.20;99.90
13686;DHT22;6915;48.296;8.874;2023-01-13T08:04:49;8.10;99.90
13686;DHT22;6915;48.296;8.874;2023-01-13T08:07:18;8.10;99.90
13686;DHT22;6915;48.296;8.874;2023-01-13T08:09:48;8.10;99.90
13686;DHT22;6915;48.296;8.874;2023-01-13T08:12:19;8.20;99.90
13686;DHT22;6915;48.296;8.874;2023-01-13T08:15:09;8.20;99.90
13686;DHT22;6915;48.296;8.874;2023-01-13T08:17:38;8.30;99.90
13686;DHT22;6915;48.296;8.874;2023-01-13T08:20:07;8.30;99.90
13686;DHT22;6915;48.296;8.874;2023-01-13T08:22:37;8.30;99.90
13686;DHT22;6915;48.296;8.874;2023-01-13T08:25:10;8.30;99.90
13686;DHT22;6915;48.296;8.874;2023-01-13T08:27:39;8.40;99.90
13686;DHT22;6915;48.296;8.874;2023-01-13T08:30:11;8.40;99.90
13686;DHT22;6915;48.296;8.874;2023-01-13T08:32:41;8.40;99.90
13686;DHT22;6915;48.296;8.874;2023-01-13T08:35:11;8.50;99.90
13686;DHT22;6915;48.296;8.874;2023-01-13T08:37:41;8.50;99.90
13686;DHT22;6915;48.296;8.874;2023-01-13T08:40:12;8.50;99.90
13686;DHT22;6915;48.296;8.874;2023-01-13T08:42:43;8.40;99.90
13686;DHT22;6915;48.296;8.874;2023-01-13T08:45:15;8.30;99.90
13686;DHT22;6915;48.296;8.874;2023-01-13T08:47:45;8.20;99.90
13686;DHT22;6915;48.296;8.874;2023-01-13T08:50:16;8.10;99.90
13686;DHT22;6915;48.296;8.874;2023-01-13T08:52:45;8.10;99.90
13686;DHT22;6915;48.296;8.874;2023-01-13T08:57:41;7.90;99.90
13686;DHT22;6915;48.296;8.874;2023-01-13T09:00:12;7.90;99.90
13686;DHT22;6915;48.296;8.874;2023-01-13T09:02:42;7.80;99.90
13686;DHT22;6915;48.296;8.874;2023-01-13T09:05:12;7.80;99.90
13686;DHT22;6915;48.296;8.874;2023-01-13T09:07:42;7.80;99.90
13686;DHT22;6915;48.296;8.874;2023-01-13T09:10:12;7.80;99.90
13686;DHT22;6915;48.296;8.874;2023-01-13T09:12:43;7.80;99.90
13686;DHT22;6915;48.296;8.874;2023-01-13T09:15:31;7.90;99.90
13686;DHT22;6915;48.296;8.874;2023-01-13T09:17:59;8.00;99.90
13686;DHT22;6915;48.296;8.874;2023-01-13T09:20:29;8.00;99.90
13686;DHT22;6915;48.296;8.874;2023-01-13T09:22:59;8.10;99.90
13686;DHT22;6915;48.296;8.874;2023-01-13T09:25:28;8.10;99.90
13686;DHT22;6915;48.296;8.874;2023-01-13T09:27:58;8.20;99.90
13686;DHT22;6915;48.296;8.874;2023-01-13T09:30:28;8.20;99.90
13686;DHT22;6915;48.296;8.874;2023-01-13T09:33:00;8.30;99.90
13686;DHT22;6915;48.296;8.874;2023-01-13T09:35:47;8.30;99.90
13686;DHT22;6915;48.296;8.874;2023-01-13T09:38:16;8.30;99.90
13686;DHT22;6915;48.296;8.874;2023-01-13T09:40:49;8.30;99.90
13686;DHT22;6915;48.296;8.874;2023-01-13T09:43:22;8.30;99.90
13686;DHT22;6915;48.296;8.874;2023-01-13T09:46:16;8.30;99.90
13686;DHT22;6915;48.296;8.874;2023-01-13T09:49:02;8.20;99.90
13686;DHT22;6915;48.296;8.874;2023-01-13T09:51:36;8.20;99.90
13686;DHT22;6915;48.296;8.874;2023-01-13T09:54:10;8.20;99.90
13686;DHT22;6915;48.296;8.874;2023-01-13T09:56:42;8.20;99.90
13686;DHT22;6915;48.296;8.874;2023-01-13T09:59:12;8.30;99.90
13686;DHT22;6915;48.296;8.874;2023-01-13T10:01:47;8.30;99.90
13686;DHT22;6915;48.296;8.874;2023-01-13T10:04:21;8.30;99.90
13686;DHT22;6915;48.296;8.874;2023-01-13T10:06:53;8.30;99.90
13686;DHT22;6915;48.296;8.874;2023-01-13T10:09:31;8.30;99.90
13686;DHT22;6915;48.296;8.874;2023-01-13T10:12:02;8.30;99.90
13686;DHT22;6915;48.296;8.874;2023-01-13T10:14:51;8.30;99.90
13686;DHT22;6915;48.296;8.874;2023-01-13T10:17:28;8.20;99.90
13686;DHT22;6915;48.296;8.874;2023-01-13T10:20:09;8.20;99.90
13686;DHT22;6915;48.296;8.874;2023-01-13T10:22:48;8.20;99.90
13686;DHT22;6915;48.296;8.874;2023-01-13T10:25:27;8.20;99.90
13686;DHT22;6915;48.296;8.874;2023-01-13T10:28:07;8.20;99.90
13686;DHT22;6915;48.296;8.874;2023-01-13T10:30:39;8.20;99.90
13686;DHT22;6915;48.296;8.874;2023-01-13T10:33:13;8.30;99.90
13686;DHT22;6915;48.296;8.874;2023-01-13T10:35:56;8.20;99.90
13686;DHT22;6915;48.296;8.874;2023-01-13T10:38:26;8.20;99.90
13686;DHT22;6915;48.296;8.874;2023-01-13T10:40:58;8.20;99.90
13686;DHT22;6915;48.296;8.874;2023-01-13T10:43:30;8.30;99.90
13686;DHT22;6915;48.296;8.874;2023-01-13T10:46:01;8.30;99.90
13686;DHT22;6915;48.296;8.874;2023-01-13T10:48:35;8.30;99.90
13686;DHT22;6915;48.296;8.874;2023-01-13T10:51:18;8.30;99.90
13686;DHT22;6915;48.296;8.874;2023-01-13T10:53:53;8.40;99.90
13686;DHT22;6915;48.296;8.874;2023-01-13T10:56:24;8.40;99.90
13686;DHT22;6915;48.296;8.874;2023-01-13T10:59:10;8.40;99.90
13686;DHT22;6915;48.296;8.874;2023-01-13T11:01:50;8.50;99.90
13686;DHT22;6915;48.296;8.874;2023-01-13T11:04:28;8.60;99.90
13686;DHT22;6915;48.296;8.874;2023-01-13T11:07:00;8.80;99.90
13686;DHT22;6915;48.296;8.874;2023-01-13T11:09:31;9.00;99.90
13686;DHT22;6915;48.296;8.874;2023-01-13T11:12:01;9.10;99.90
13686;DHT22;6915;48.296;8.874;2023-01-13T11:14:36;9.30;99.90
13686;DHT22;6915;48.296;8.874;2023-01-13T11:17:26;9.50;99.90
13686;DHT22;6915;48.296;8.874;2023-01-13T11:20:02;9.80;99.90
13686;DHT22;6915;48.296;8.874;2023-01-13T11:22:36;10.00;99.90
13686;DHT22;6915;48.296;8.874;2023-01-13T11:25:09;10.10;99.90
13686;DHT22;6915;48.296;8.874;2023-01-13T11:27:41;10.20;99.90
13686;DHT22;6915;48.296;8.874;2023-01-13T11:30:19;10.30;99.90
13686;DHT22;6915;48.296;8.874;2023-01-13T11:32:59;10.20;99.90
13686;DHT22;6915;48.296;8.874;2023-01-13T11:35:36;10.10;99.90
13686;DHT22;6915;48.296;8.874;2023-01-13T11:38:13;10.00;99.90
13686;DHT22;6915;48.296;8.874;2023-01-13T11:40:47;9.80;99.90
13686;DHT22;6915;48.296;8.874;2023-01-13T11:43:22;9.60;99.90
13686;DHT22;6915;48.296;8.874;2023-01-13T11:45:57;9.50;99.90
13686;DHT22;6915;48.296;8.874;2023-01-13T11:48:31;7.80;99.90
13686;DHT22;6915;48.296;8.874;2023-01-13T11:51:05;6.30;99.90
13686;DHT22;6915;48.296;8.874;2023-01-13T11:53:53;5.50;99.90
13686;DHT22;6915;48.296;8.874;2023-01-13T11:56:39;5.10;99.90
13686;DHT22;6915;48.296;8.874;2023-01-13T11:59:29;4.90;99.90
13686;DHT22;6915;48.296;8.874;2023-01-13T12:02:11;4.70;99.90
13686;DHT22;6915;48.296;8.874;2023-01-13T12:04:46;4.80;99.90
13686;DHT22;6915;48.296;8.874;2023-01-13T12:07:32;4.90;99.90
13686;DHT22;6915;48.296;8.874;2023-01-13T12:10:07;5.00;99.90
13686;DHT22;6915;48.296;8.874;2023-01-13T12:12:43;5.10;99.90
13686;DHT22;6915;48.296;8.874;2023-01-13T12:18:42;5.20;99.90
13686;DHT22;6915;48.296;8.874;2023-01-13T12:21:20;5.20;99.90
13686;DHT22;6915;48.296;8.874;2023-01-13T12:23:59;5.30;99.90
13686;DHT22;6915;48.296;8.874;2023-01-13T12:26:37;5.40;99.90
13686;DHT22;6915;48.296;8.874;2023-01-13T12:29:10;5.50;99.90
13686;DHT22;6915;48.296;8.874;2023-01-13T12:31:42;5.50;99.90
13686;DHT22;6915;48.296;8.874;2023-01-13T12:34:28;5.60;99.90
13686;DHT22;6915;48.296;8.874;2023-01-13T12:37:07;5.60;99.90
13686;DHT22;6915;48.296;8.874;2023-01-13T12:39:44;5.70;99.90
13686;DHT22;6915;48.296;8.874;2023-01-13T12:42:23;5.70;99.90
13686;DHT22;6915;48.296;8.874;2023-01-13T12:45:22;5.80;99.90
13686;DHT22;6915;48.296;8.874;2023-01-13T12:47:52;5.90;99.90
13686;DHT22;6915;48.296;8.874;2023-01-13T12:50:44;6.10;99.90
13686;DHT22;6915;48.296;8.874;2023-01-13T12:53:35;6.30;99.90
13686;DHT22;6915;48.296;8.874;2023-01-13T12:56:34;6.40;99.90
13686;DHT22;6915;48.296;8.874;2023-01-13T13:02:34;6.60;99.90
13686;DHT22;6915;48.296;8.874;2023-01-13T13:05:38;6.60;99.90
13686;DHT22;6915;48.296;8.874;2023-01-13T13:08:21;6.80;99.90
13686;DHT22;6915;48.296;8.874;2023-01-13T13:11:05;6.80;99.90
13686;DHT22;6915;48.296;8.874;2023-01-13T13:14:04;6.90;99.90
13686;DHT22;6915;48.296;8.874;2023-01-13T13:16:53;6.90;99.90
13686;DHT22;6915;48.296;8.874;2023-01-13T13:19:45;7.10;99.90
13686;DHT22;6915;48.296;8.874;2023-01-13T13:22:37;7.20;99.90
13686;DHT22;6915;48.296;8.874;2023-01-13T13:25:26;7.30;99.90
13686;DHT22;6915;48.296;8.874;2023-01-13T13:28:15;7.30;99.90
13686;DHT22;6915;48.296;8.874;2023-01-13T13:30:53;7.30;99.90
13686;DHT22;6915;48.296;8.874;2023-01-13T13:33:43;7.40;99.90
13686;DHT22;6915;48.296;8.874;2023-01-13T13:36:27;7.40;99.90
13686;DHT22;6915;48.296;8.874;2023-01-13T13:39:09;7.40;99.90
13686;DHT22;6915;48.296;8.874;2023-01-13T13:42:03;7.50;99.90
13686;DHT22;6915;48.296;8.874;2023-01-13T13:44:55;7.60;99.90
13686;DHT22;6915;48.296;8.874;2023-01-13T13:47:42;7.60;99.90
13686;DHT22;6915;48.296;8.874;2023-01-13T13:50:14;7.60;99.90
13686;DHT22;6915;48.296;8.874;2023-01-13T13:52:50;7.70;99.90
13686;DHT22;6915;48.296;8.874;2023-01-13T13:55:26;7.70;99.90
13686;DHT22;6915;48.296;8.874;2023-01-13T13:57:57;7.60;99.90
13686;DHT22;6915;48.296;8.874;2023-01-13T14:00:30;7.50;99.90
13686;DHT22;6915;48.296;8.874;2023-01-13T14:03:02;7.50;99.90
13686;DHT22;6915;48.296;8.874;2023-01-13T14:05:35;7.30;99.90
13686;DHT22;6915;48.296;8.874;2023-01-13T14:08:13;7.40;99.90
13686;DHT22;6915;48.296;8.874;2023-01-13T14:10:45;7.40;99.90
13686;DHT22;6915;48.296;8.874;2023-01-13T14:13:14;7.30;99.90
13686;DHT22;6915;48.296;8.874;2023-01-13T14:15:48;7.30;99.90
13686;DHT22;6915;48.296;8.874;2023-01-13T14:18:19;7.30;99.90
13686;DHT22;6915;48.296;8.874;2023-01-13T14:20:57;7.30;99.90
13686;DHT22;6915;48.296;8.874;2023-01-13T14:23:31;7.40;99.90
13686;DHT22;6915;48.296;8.874;2023-01-13T14:26:02;7.50;99.90
13686;DHT22;6915;48.296;8.874;2023-01-13T14:28:36;7.60;99.90
13686;DHT22;6915;48.296;8.874;2023-01-13T14:31:07;7.60;99.90
13686;DHT22;6915;48.296;8.874;2023-01-13T14:33:40;7.50;99.90
13686;DHT22;6915;48.296;8.874;2023-01-13T14:36:19;7.50;99.90
13686;DHT22;6915;48.296;8.874;2023-01-13T14:42:00;7.60;99.90
13686;DHT22;6915;48.296;8.874;2023-01-13T14:44:31;7.50;99.90
13686;DHT22;6915;48.296;8.874;2023-01-13T14:47:15;7.50;99.90
13686;DHT22;6915;48.296;8.874;2023-01-13T14:49:52;7.50;99.90
13686;DHT22;6915;48.296;8.874;2023-01-13T14:52:26;7.40;99.90
13686;DHT22;6915;48.296;8.874;2023-01-13T14:55:25;7.30;99.90
13686;DHT22;6915;48.296;8.874;2023-01-13T15:00:37;7.40;99.90
13686;DHT22;6915;48.296;8.874;2023-01-13T15:03:11;7.40;99.90
13686;DHT22;6915;48.296;8.874;2023-01-13T15:05:44;7.50;99.90
13686;DHT22;6915;48.296;8.874;2023-01-13T15:08:35;7.40;99.90
13686;DHT22;6915;48.296;8.874;2023-01-13T15:11:13;7.40;99.90
13686;DHT22;6915;48.296;8.874;2023-01-13T15:13:46;7.30;99.90
13686;DHT22;6915;48.296;8.874;2023-01-13T15:16:18;7.20;99.90
13686;DHT22;6915;48.296;8.874;2023-01-13T15:18:49;7.20;99.90
13686;DHT22;6915;48.296;8.874;2023-01-13T15:21:19;7.10;99.90
13686;DHT22;6915;48.296;8.874;2023-01-13T15:23:50;7.20;99.90
13686;DHT22;6915;48.296;8.874;2023-01-13T15:26:22;7.20;99.90
13686;DHT22;6915;48.296;8.874;2023-01-13T15:28:52;7.20;99.90
13686;DHT22;6915;48.296;8.874;2023-01-13T15:31:23;7.10;99.90
13686;DHT22;6915;48.296;8.874;2023-01-13T15:33:52;7.20;99.90
13686;DHT22;6915;48.296;8.874;2023-01-13T15:36:24;7.20;99.90
13686;DHT22;6915;48.296;8.874;2023-01-13T15:38:55;7.20;99.90
13686;DHT22;6915;48.296;8.874;2023-01-13T15:41:26;7.10;99.90
13686;DHT22;6915;48.296;8.874;2023-01-13T15:44:14;7.10;99.90
13686;DHT22;6915;48.296;8.874;2023-01-13T15:47:03;7.10;99.90
13686;DHT22;6915;48.296;8.874;2023-01-13T15:49:34;7.00;99.90
13686;DHT22;6915;48.296;8.874;2023-01-13T15:52:11;7.00;99.90
13686;DHT22;6915;48.296;8.874;2023-01-13T15:54:44;6.90;99.90
13686;DHT22;6915;48.296;8.874;2023-01-13T15:57:20;6.80;99.90
13686;DHT22;6915;48.296;8.874;2023-01-13T15:59:53;6.80;99.90
13686;DHT22;6915;48.296;8.874;2023-01-13T16:02:24;6.80;99.90
13686;DHT22;6915;48.296;8.874;2023-01-13T16:04:56;6.70;99.90
13686;DHT22;6915;48.296;8.874;2023-01-13T16:07:27;6.60;99.90
13686;DHT22;6915;48.296;8.874;2023-01-13T16:10:13;6.50;99.90
13686;DHT22;6915;48.296;8.874;2023-01-13T16:12:46;6.40;99.90
13686;DHT22;6915;48.296;8.874;2023-01-13T16:15:18;6.30;99.90
13686;DHT22;6915;48.296;8.874;2023-01-13T16:17:53;6.10;99.90
13686;DHT22;6915;48.296;8.874;2023-01-13T16:24:05;5.90;99.90
13686;DHT22;6915;48.296;8.874;2023-01-13T16:26:33;5.90;99.90
13686;DHT22;6915;48.296;8.874;2023-01-13T16:29:08;5.90;99.90
13686;DHT22;6915;48.296;8.874;2023-01-13T16:31:40;5.80;99.90
13686;DHT22;6915;48.296;8.874;2023-01-13T16:34:10;5.80;99.90
13686;DHT22;6915;48.296;8.874;2023-01-13T16:36:40;5.80;99.90
13686;DHT22;6915;48.296;8.874;2023-01-13T16:39:21;5.90;99.90
13686;DHT22;6915;48.296;8.874;2023-01-13T16:41:52;5.80;99.90
13686;DHT22;6915;48.296;8.874;2023-01-13T16:44:25;5.90;99.90
13686;DHT22;6915;48.296;8.874;2023-01-13T16:46:56;5.80;99.90
13686;DHT22;6915;48.296;8.874;2023-01-13T16:49:26;5.80;99.90
13686;DHT22;6915;48.296;8.874;2023-01-13T16:51:56;5.70;99.90
13686;DHT22;6915;48.296;8.874;2023-01-13T16:54:26;5.80;99.90
13686;DHT22;6915;48.296;8.874;2023-01-13T17:02:11;5.80;99.90
13686;DHT22;6915;48.296;8.874;2023-01-13T17:04:41;5.80;99.90
13686;DHT22;6915;48.296;8.874;2023-01-13T17:07:16;5.80;99.90
13686;DHT22;6915;48.296;8.874;2023-01-13T17:09:50;5.90;99.90
13686;DHT22;6915;48.296;8.874;2023-01-13T17:12:20;5.90;99.90
13686;DHT22;6915;48.296;8.874;2023-01-13T17:14:50;6.00;99.90
13686;DHT22;6915;48.296;8.874;2023-01-13T17:17:24;5.90;99.90
13686;DHT22;6915;48.296;8.874;2023-01-13T17:19:54;5.90;99.90